sensor_id;sensor_type;location;lat;lon;timestamp;P1;durP1;ratioP1;P2;durP2;ratioP2
63807;SDS011;49961;43.970;22.868;2023-04-03T00:00:42;6.87;;;4.00;;
63807;SDS011;49961;43.970;22.868;2023-04-03T00:01:42;5.97;;;4.73;;
63807;SDS011;49961;43.970;22.868;2023-04-03T00:02:43;5.87;;;4.33;;
63807;SDS011;49961;43.970;22.868;2023-04-03T00:03:43;5.97;;;4.40;;
63807;SDS011;49961;43.970;22.868;2023-04-03T00:04:44;4.67;;;4.27;;
63807;SDS011;49961;43.970;22.868;2023-04-03T00:05:45;5.53;;;4.43;;
63807;SDS011;49961;43.970;22.868;2023-04-03T00:06:46;8.53;;;4.87;;
63807;SDS011;49961;43.970;22.868;2023-04-03T00:07:46;5.73;;;4.60;;
63807;SDS011;49961;43.970;22.868;2023-04-03T00:08:47;6.77;;;5.20;;
63807;SDS011;49961;43.970;22.868;2023-04-03T00:09:48;5.93;;;4.60;;
63807;SDS011;49961;43.970;22.868;2023-04-03T00:10:48;5.93;;;4.43;;
63807;SDS011;49961;43.970;22.868;2023-04-03T00:11:49;6.20;;;4.33;;
63807;SDS011;49961;43.970;22.868;2023-04-03T00:12:49;5.50;;;4.50;;
63807;SDS011;49961;43.970;22.868;2023-04-03T00:13:50;4.97;;;4.10;;
63807;SDS011;49961;43.970;22.868;2023-04-03T00:14:50;5.63;;;4.33;;
63807;SDS011;49961;43.970;22.868;2023-04-03T00:15:51;5.67;;;4.33;;
63807;SDS011;49961;43.970;22.868;2023-04-03T00:16:52;6.27;;;4.30;;
63807;SDS011;49961;43.970;22.868;2023-04-03T00:17:52;5.87;;;4.17;;
63807;SDS011;49961;43.970;22.868;2023-04-03T00:18:53;6.30;;;4.00;;
63807;SDS011;49961;43.970;22.868;2023-04-03T00:19:53;5.70;;;4.60;;
63807;SDS011;49961;43.970;22.868;2023-04-03T00:20:54;4.97;;;4.30;;
63807;SDS011;49961;43.970;22.868;2023-04-03T00:21:54;5.13;;;4.60;;
63807;SDS011;49961;43.970;22.868;2023-04-03T00:22:55;5.60;;;3.93;;
63807;SDS011;49961;43.970;22.868;2023-04-03T00:23:56;7.80;;;4.63;;
63807;SDS011;49961;43.970;22.868;2023-04-03T00:24:56;4.93;;;3.93;;
63807;SDS011;49961;43.970;22.868;2023-04-03T00:25:57;5.87;;;3.57;;
63807;SDS011;49961;43.970;22.868;2023-04-03T00:26:57;4.63;;;4.13;;
63807;SDS011;49961;43.970;22.868;2023-04-03T00:27:57;4.40;;;3.93;;
63807;SDS011;49961;43.970;22.868;2023-04-03T00:28:58;4.30;;;3.90;;
63807;SDS011;49961;43.970;22.868;2023-04-03T00:29:58;5.20;;;3.87;;
63807;SDS011;49961;43.970;22.868;2023-04-03T00:30:59;4.80;;;3.90;;
63807;SDS011;49961;43.970;22.868;2023-04-03T00:32:00;4.40;;;3.90;;
63807;SDS011;49961;43.970;22.868;2023-04-03T00:33:00;8.27;;;3.70;;
63807;SDS011;49961;43.970;22.868;2023-04-03T00:34:01;5.00;;;3.60;;
63807;SDS011;49961;43.970;22.868;2023-04-03T00:35:02;6.60;;;3.70;;
63807;SDS011;49961;43.970;22.868;2023-04-03T00:36:06;7.50;;;4.20;;
63807;SDS011;49961;43.970;22.868;2023-04-03T00:37:09;5.03;;;3.70;;
63807;SDS011;49961;43.970;22.868;2023-04-03T00:38:09;5.00;;;3.57;;
63807;SDS011;49961;43.970;22.868;2023-04-03T00:39:10;5.40;;;3.70;;
63807;SDS011;49961;43.970;22.868;2023-04-03T00:40:11;6.40;;;3.83;;
63807;SDS011;49961;43.970;22.868;2023-04-03T00:41:12;5.47;;;4.00;;
63807;SDS011;49961;43.970;22.868;2023-04-03T00:42:13;5.43;;;3.70;;
63807;SDS011;49961;43.970;22.868;2023-04-03T00:43:18;6.23;;;3.20;;
63807;SDS011;49961;43.970;22.868;2023-04-03T00:45:37;7.03;;;3.97;;
63807;SDS011;49961;43.970;22.868;2023-04-03T00:46:39;6.00;;;3.60;;
63807;SDS011;49961;43.970;22.868;2023-04-03T00:47:40;8.93;;;3.60;;
63807;SDS011;49961;43.970;22.868;2023-04-03T00:48:42;6.93;;;4.07;;
63807;SDS011;49961;43.970;22.868;2023-04-03T00:49:45;5.97;;;3.37;;
63807;SDS011;49961;43.970;22.868;2023-04-03T00:50:46;4.20;;;2.93;;
63807;SDS011;49961;43.970;22.868;2023-04-03T00:51:47;3.77;;;3.30;;
63807;SDS011;49961;43.970;22.868;2023-04-03T00:52:48;4.90;;;3.20;;
63807;SDS011;49961;43.970;22.868;2023-04-03T00:53:50;4.07;;;2.90;;
63807;SDS011;49961;43.970;22.868;2023-04-03T00:54:57;4.73;;;2.90;;
63807;SDS011;49961;43.970;22.868;2023-04-03T00:56:01;4.37;;;3.47;;
63807;SDS011;49961;43.970;22.868;2023-04-03T00:57:01;9.67;;;3.70;;
63807;SDS011;49961;43.970;22.868;2023-04-03T00:58:03;3.73;;;3.10;;
63807;SDS011;49961;43.970;22.868;2023-04-03T00:59:11;3.50;;;2.93;;
63807;SDS011;49961;43.970;22.868;2023-04-03T01:00:17;3.70;;;3.17;;
63807;SDS011;49961;43.970;22.868;2023-04-03T01:01:24;5.20;;;3.20;;
63807;SDS011;49961;43.970;22.868;2023-04-03T01:02:26;3.30;;;3.00;;
63807;SDS011;49961;43.970;22.868;2023-04-03T01:03:26;5.13;;;2.90;;
63807;SDS011;49961;43.970;22.868;2023-04-03T01:04:34;3.80;;;2.90;;
63807;SDS011;49961;43.970;22.868;2023-04-03T01:05:36;8.23;;;3.10;;
63807;SDS011;49961;43.970;22.868;2023-04-03T01:06:37;4.57;;;3.30;;
63807;SDS011;49961;43.970;22.868;2023-04-03T01:07:38;4.30;;;3.37;;
63807;SDS011;49961;43.970;22.868;2023-04-03T01:08:39;3.60;;;2.90;;
63807;SDS011;49961;43.970;22.868;2023-04-03T01:09:40;3.77;;;2.73;;
63807;SDS011;49961;43.970;22.868;2023-04-03T01:10:41;3.20;;;2.90;;
63807;SDS011;49961;43.970;22.868;2023-04-03T01:11:42;5.47;;;3.10;;
63807;SDS011;49961;43.970;22.868;2023-04-03T01:12:44;4.00;;;2.90;;
63807;SDS011;49961;43.970;22.868;2023-04-03T01:13:46;4.93;;;3.07;;
63807;SDS011;49961;43.970;22.868;2023-04-03T01:14:48;6.47;;;2.73;;
63807;SDS011;49961;43.970;22.868;2023-04-03T01:15:50;5.17;;;3.00;;
63807;SDS011;49961;43.970;22.868;2023-04-03T01:16:52;7.67;;;3.10;;
63807;SDS011;49961;43.970;22.868;2023-04-03T01:17:54;3.40;;;2.27;;
63807;SDS011;49961;43.970;22.868;2023-04-03T01:18:58;7.23;;;2.83;;
63807;SDS011;49961;43.970;22.868;2023-04-03T01:22:30;6.80;;;2.80;;
63807;SDS011;49961;43.970;22.868;2023-04-03T01:24:22;6.50;;;2.50;;
63807;SDS011;49961;43.970;22.868;2023-04-03T01:25:06;3.30;;;2.30;;
63807;SDS011;49961;43.970;22.868;2023-04-03T01:26:06;2.93;;;2.40;;
63807;SDS011;49961;43.970;22.868;2023-04-03T01:27:07;3.67;;;2.20;;
63807;SDS011;49961;43.970;22.868;2023-04-03T01:28:20;2.93;;;2.40;;
63807;SDS011;49961;43.970;22.868;2023-04-03T01:29:26;2.93;;;2.10;;
63807;SDS011;49961;43.970;22.868;2023-04-03T01:30:31;4.07;;;2.27;;
63807;SDS011;49961;43.970;22.868;2023-04-03T01:33:03;3.60;;;2.20;;
63807;SDS011;49961;43.970;22.868;2023-04-03T01:34:04;2.87;;;1.70;;
63807;SDS011;49961;43.970;22.868;2023-04-03T01:35:06;4.47;;;2.03;;
63807;SDS011;49961;43.970;22.868;2023-04-03T01:36:08;6.67;;;2.20;;
63807;SDS011;49961;43.970;22.868;2023-04-03T01:37:10;5.53;;;2.03;;
63807;SDS011;49961;43.970;22.868;2023-04-03T01:38:10;11.17;;;3.03;;
63807;SDS011;49961;43.970;22.868;2023-04-03T01:39:11;5.93;;;2.10;;
63807;SDS011;49961;43.970;22.868;2023-04-03T01:40:12;2.60;;;1.63;;
63807;SDS011;49961;43.970;22.868;2023-04-03T01:41:12;4.20;;;2.00;;
63807;SDS011;49961;43.970;22.868;2023-04-03T01:42:13;3.63;;;1.90;;
63807;SDS011;49961;43.970;22.868;2023-04-03T01:43:13;3.43;;;1.67;;
63807;SDS011;49961;43.970;22.868;2023-04-03T01:44:14;2.10;;;1.63;;
63807;SDS011;49961;43.970;22.868;2023-04-03T01:45:15;6.30;;;2.13;;
63807;SDS011;49961;43.970;22.868;2023-04-03T01:46:15;5.03;;;1.80;;
63807;SDS011;49961;43.970;22.868;2023-04-03T01:47:16;2.63;;;1.70;;
63807;SDS011;49961;43.970;22.868;2023-04-03T01:48:17;2.77;;;1.60;;
63807;SDS011;49961;43.970;22.868;2023-04-03T01:49:17;2.23;;;1.47;;
63807;SDS011;49961;43.970;22.868;2023-04-03T01:50:18;2.73;;;1.50;;
63807;SDS011;49961;43.970;22.868;2023-04-03T01:51:18;2.60;;;1.60;;
63807;SDS011;49961;43.970;22.868;2023-04-03T01:52:19;3.40;;;1.90;;
63807;SDS011;49961;43.970;22.868;2023-04-03T01:53:19;2.97;;;1.70;;
63807;SDS011;49961;43.970;22.868;2023-04-03T01:54:20;3.80;;;1.73;;
63807;SDS011;49961;43.970;22.868;2023-04-03T01:55:20;2.67;;;1.70;;
63807;SDS011;49961;43.970;22.868;2023-04-03T01:56:20;2.40;;;1.60;;
63807;SDS011;49961;43.970;22.868;2023-04-03T01:57:21;2.37;;;1.73;;
63807;SDS011;49961;43.970;22.868;2023-04-03T01:58:21;2.97;;;1.60;;
63807;SDS011;49961;43.970;22.868;2023-04-03T01:59:22;2.80;;;1.77;;
63807;SDS011;49961;43.970;22.868;2023-04-03T02:00:22;3.37;;;2.07;;
63807;SDS011;49961;43.970;22.868;2023-04-03T02:01:23;3.13;;;1.70;;
63807;SDS011;49961;43.970;22.868;2023-04-03T02:02:23;3.63;;;1.77;;
63807;SDS011;49961;43.970;22.868;2023-04-03T02:03:24;2.67;;;1.80;;
63807;SDS011;49961;43.970;22.868;2023-04-03T02:04:24;4.47;;;1.60;;
63807;SDS011;49961;43.970;22.868;2023-04-03T02:05:25;3.60;;;1.80;;
63807;SDS011;49961;43.970;22.868;2023-04-03T02:06:25;5.00;;;1.93;;
63807;SDS011;49961;43.970;22.868;2023-04-03T02:07:26;6.90;;;2.47;;
63807;SDS011;49961;43.970;22.868;2023-04-03T02:08:26;4.47;;;2.00;;
63807;SDS011;49961;43.970;22.868;2023-04-03T02:09:26;3.60;;;2.00;;
63807;SDS011;49961;43.970;22.868;2023-04-03T02:10:27;7.17;;;2.20;;
63807;SDS011;49961;43.970;22.868;2023-04-03T02:11:27;3.90;;;2.00;;
63807;SDS011;49961;43.970;22.868;2023-04-03T02:12:28;3.10;;;1.80;;
63807;SDS011;49961;43.970;22.868;2023-04-03T02:13:28;1.97;;;1.70;;
63807;SDS011;49961;43.970;22.868;2023-04-03T02:14:29;3.23;;;1.50;;
63807;SDS011;49961;43.970;22.868;2023-04-03T02:15:29;2.40;;;1.50;;
63807;SDS011;49961;43.970;22.868;2023-04-03T02:16:30;2.60;;;1.50;;
63807;SDS011;49961;43.970;22.868;2023-04-03T02:17:30;5.67;;;1.80;;
63807;SDS011;49961;43.970;22.868;2023-04-03T02:18:31;3.37;;;1.70;;
63807;SDS011;49961;43.970;22.868;2023-04-03T02:19:31;2.20;;;1.70;;
63807;SDS011;49961;43.970;22.868;2023-04-03T02:20:32;2.73;;;2.00;;
63807;SDS011;49961;43.970;22.868;2023-04-03T02:21:32;2.73;;;1.90;;
63807;SDS011;49961;43.970;22.868;2023-04-03T02:22:33;2.40;;;1.70;;
63807;SDS011;49961;43.970;22.868;2023-04-03T02:23:33;1.83;;;1.40;;
63807;SDS011;49961;43.970;22.868;2023-04-03T02:24:36;2.53;;;1.47;;
63807;SDS011;49961;43.970;22.868;2023-04-03T02:25:36;3.80;;;1.53;;
63807;SDS011;49961;43.970;22.868;2023-04-03T02:26:36;3.90;;;1.53;;
63807;SDS011;49961;43.970;22.868;2023-04-03T02:27:37;2.83;;;1.63;;
63807;SDS011;49961;43.970;22.868;2023-04-03T02:28:37;1.87;;;1.50;;
63807;SDS011;49961;43.970;22.868;2023-04-03T02:29:38;2.23;;;1.60;;
63807;SDS011;49961;43.970;22.868;2023-04-03T02:30:39;1.60;;;1.30;;
63807;SDS011;49961;43.970;22.868;2023-04-03T02:31:39;2.40;;;1.60;;
63807;SDS011;49961;43.970;22.868;2023-04-03T02:32:40;3.00;;;1.60;;
63807;SDS011;49961;43.970;22.868;2023-04-03T02:33:42;1.83;;;1.33;;
63807;SDS011;49961;43.970;22.868;2023-04-03T02:34:42;2.97;;;1.60;;
63807;SDS011;49961;43.970;22.868;2023-04-03T02:35:43;2.50;;;1.60;;
63807;SDS011;49961;43.970;22.868;2023-04-03T02:36:43;2.53;;;1.60;;
63807;SDS011;49961;43.970;22.868;2023-04-03T02:37:44;2.33;;;1.50;;
63807;SDS011;49961;43.970;22.868;2023-04-03T02:38:44;2.13;;;1.50;;
63807;SDS011;49961;43.970;22.868;2023-04-03T02:39:45;2.97;;;1.40;;
63807;SDS011;49961;43.970;22.868;2023-04-03T02:40:46;5.33;;;1.60;;
63807;SDS011;49961;43.970;22.868;2023-04-03T02:41:46;3.53;;;1.70;;
63807;SDS011;49961;43.970;22.868;2023-04-03T02:42:47;2.87;;;1.83;;
63807;SDS011;49961;43.970;22.868;2023-04-03T02:43:47;1.87;;;1.57;;
63807;SDS011;49961;43.970;22.868;2023-04-03T02:44:47;3.37;;;1.60;;
63807;SDS011;49961;43.970;22.868;2023-04-03T02:45:48;2.33;;;1.60;;
63807;SDS011;49961;43.970;22.868;2023-04-03T02:46:48;3.60;;;1.60;;
63807;SDS011;49961;43.970;22.868;2023-04-03T02:47:49;4.40;;;1.77;;
63807;SDS011;49961;43.970;22.868;2023-04-03T02:48:50;3.73;;;1.50;;
63807;SDS011;49961;43.970;22.868;2023-04-03T02:49:50;2.53;;;1.50;;
63807;SDS011;49961;43.970;22.868;2023-04-03T02:50:52;2.93;;;1.60;;
63807;SDS011;49961;43.970;22.868;2023-04-03T02:51:53;1.80;;;1.60;;
63807;SDS011;49961;43.970;22.868;2023-04-03T02:52:53;3.27;;;1.67;;
63807;SDS011;49961;43.970;22.868;2023-04-03T02:53:54;2.83;;;1.67;;
63807;SDS011;49961;43.970;22.868;2023-04-03T02:54:54;3.20;;;1.83;;
63807;SDS011;49961;43.970;22.868;2023-04-03T02:55:55;1.77;;;1.40;;
63807;SDS011;49961;43.970;22.868;2023-04-03T02:56:55;1.97;;;1.50;;
63807;SDS011;49961;43.970;22.868;2023-04-03T02:57:56;2.20;;;1.53;;
63807;SDS011;49961;43.970;22.868;2023-04-03T02:58:57;1.90;;;1.47;;
63807;SDS011;49961;43.970;22.868;2023-04-03T02:59:57;5.00;;;1.50;;
63807;SDS011;49961;43.970;22.868;2023-04-03T03:00:58;7.17;;;2.07;;
63807;SDS011;49961;43.970;22.868;2023-04-03T03:01:58;3.90;;;1.60;;
63807;SDS011;49961;43.970;22.868;2023-04-03T03:02:58;5.87;;;2.03;;
63807;SDS011;49961;43.970;22.868;2023-04-03T03:03:59;2.53;;;1.73;;
63807;SDS011;49961;43.970;22.868;2023-04-03T03:05:00;3.17;;;1.60;;
63807;SDS011;49961;43.970;22.868;2023-04-03T03:06:04;3.27;;;1.50;;
63807;SDS011;49961;43.970;22.868;2023-04-03T03:07:06;2.50;;;1.70;;
63807;SDS011;49961;43.970;22.868;2023-04-03T03:08:07;3.87;;;1.77;;
63807;SDS011;49961;43.970;22.868;2023-04-03T03:09:07;2.30;;;1.57;;
63807;SDS011;49961;43.970;22.868;2023-04-03T03:10:08;3.93;;;1.83;;
63807;SDS011;49961;43.970;22.868;2023-04-03T03:11:08;7.17;;;2.10;;
63807;SDS011;49961;43.970;22.868;2023-04-03T03:12:09;7.37;;;2.50;;
63807;SDS011;49961;43.970;22.868;2023-04-03T03:13:10;2.73;;;1.50;;
63807;SDS011;49961;43.970;22.868;2023-04-03T03:14:10;4.77;;;2.00;;
63807;SDS011;49961;43.970;22.868;2023-04-03T03:15:11;3.53;;;1.70;;
63807;SDS011;49961;43.970;22.868;2023-04-03T03:16:11;4.57;;;1.87;;
63807;SDS011;49961;43.970;22.868;2023-04-03T03:17:12;5.87;;;1.80;;
63807;SDS011;49961;43.970;22.868;2023-04-03T03:18:12;8.50;;;1.93;;
63807;SDS011;49961;43.970;22.868;2023-04-03T03:19:12;6.30;;;1.80;;
63807;SDS011;49961;43.970;22.868;2023-04-03T03:20:13;3.50;;;1.90;;
63807;SDS011;49961;43.970;22.868;2023-04-03T03:21:15;8.27;;;2.13;;
63807;SDS011;49961;43.970;22.868;2023-04-03T03:22:16;2.33;;;1.60;;
63807;SDS011;49961;43.970;22.868;2023-04-03T03:23:17;2.70;;;1.60;;
63807;SDS011;49961;43.970;22.868;2023-04-03T03:24:17;3.13;;;1.90;;
63807;SDS011;49961;43.970;22.868;2023-04-03T03:25:18;5.53;;;2.13;;
63807;SDS011;49961;43.970;22.868;2023-04-03T03:26:18;3.83;;;2.00;;
63807;SDS011;49961;43.970;22.868;2023-04-03T03:27:18;3.57;;;1.90;;
63807;SDS011;49961;43.970;22.868;2023-04-03T03:28:19;3.00;;;2.10;;
63807;SDS011;49961;43.970;22.868;2023-04-03T03:29:20;4.77;;;1.90;;
63807;SDS011;49961;43.970;22.868;2023-04-03T03:30:20;3.90;;;1.90;;
63807;SDS011;49961;43.970;22.868;2023-04-03T03:31:21;6.33;;;2.30;;
63807;SDS011;49961;43.970;22.868;2023-04-03T03:32:21;5.47;;;2.37;;
63807;SDS011;49961;43.970;22.868;2023-04-03T03:33:22;3.07;;;1.93;;
63807;SDS011;49961;43.970;22.868;2023-04-03T03:34:23;3.93;;;2.10;;
63807;SDS011;49961;43.970;22.868;2023-04-03T03:35:23;4.80;;;2.40;;
63807;SDS011;49961;43.970;22.868;2023-04-03T03:36:24;2.87;;;1.80;;
63807;SDS011;49961;43.970;22.868;2023-04-03T03:37:25;3.37;;;2.07;;
63807;SDS011;49961;43.970;22.868;2023-04-03T03:38:26;2.17;;;1.80;;
63807;SDS011;49961;43.970;22.868;2023-04-03T03:39:26;9.77;;;2.50;;
63807;SDS011;49961;43.970;22.868;2023-04-03T03:40:26;10.97;;;3.23;;
63807;SDS011;49961;43.970;22.868;2023-04-03T03:41:27;6.20;;;2.60;;
63807;SDS011;49961;43.970;22.868;2023-04-03T03:42:27;6.53;;;2.37;;
63807;SDS011;49961;43.970;22.868;2023-04-03T03:43:28;11.03;;;3.10;;
63807;SDS011;49961;43.970;22.868;2023-04-03T03:44:28;13.37;;;3.20;;
63807;SDS011;49961;43.970;22.868;2023-04-03T03:45:29;6.13;;;2.50;;
63807;SDS011;49961;43.970;22.868;2023-04-03T03:46:30;6.97;;;3.10;;
63807;SDS011;49961;43.970;22.868;2023-04-03T03:47:30;7.30;;;2.73;;
63807;SDS011;49961;43.970;22.868;2023-04-03T03:48:31;5.83;;;2.57;;
63807;SDS011;49961;43.970;22.868;2023-04-03T03:49:31;8.80;;;3.07;;
63807;SDS011;49961;43.970;22.868;2023-04-03T03:50:32;18.93;;;4.47;;
63807;SDS011;49961;43.970;22.868;2023-04-03T03:51:33;7.33;;;3.10;;
63807;SDS011;49961;43.970;22.868;2023-04-03T03:52:33;14.10;;;3.87;;
63807;SDS011;49961;43.970;22.868;2023-04-03T03:53:34;17.73;;;4.77;;
63807;SDS011;49961;43.970;22.868;2023-04-03T03:54:34;12.63;;;3.17;;
63807;SDS011;49961;43.970;22.868;2023-04-03T03:55:35;10.87;;;3.50;;
63807;SDS011;49961;43.970;22.868;2023-04-03T03:56:35;10.37;;;2.87;;
63807;SDS011;49961;43.970;22.868;2023-04-03T03:57:35;6.23;;;2.53;;
63807;SDS011;49961;43.970;22.868;2023-04-03T03:58:36;10.93;;;3.23;;
63807;SDS011;49961;43.970;22.868;2023-04-03T03:59:37;3.03;;;2.43;;
63807;SDS011;49961;43.970;22.868;2023-04-03T04:00:37;4.17;;;3.13;;
63807;SDS011;49961;43.970;22.868;2023-04-03T04:01:38;4.07;;;2.47;;
63807;SDS011;49961;43.970;22.868;2023-04-03T04:02:39;7.83;;;3.03;;
63807;SDS011;49961;43.970;22.868;2023-04-03T04:03:40;9.17;;;2.97;;
63807;SDS011;49961;43.970;22.868;2023-04-03T04:04:40;4.83;;;3.00;;
63807;SDS011;49961;43.970;22.868;2023-04-03T04:05:40;5.40;;;2.67;;
63807;SDS011;49961;43.970;22.868;2023-04-03T04:06:41;3.10;;;2.63;;
63807;SDS011;49961;43.970;22.868;2023-04-03T04:07:41;5.33;;;3.03;;
63807;SDS011;49961;43.970;22.868;2023-04-03T04:08:42;3.97;;;3.03;;
63807;SDS011;49961;43.970;22.868;2023-04-03T04:09:42;4.30;;;3.03;;
63807;SDS011;49961;43.970;22.868;2023-04-03T04:10:43;4.67;;;2.83;;
63807;SDS011;49961;43.970;22.868;2023-04-03T04:11:43;3.50;;;2.90;;
63807;SDS011;49961;43.970;22.868;2023-04-03T04:12:45;4.07;;;3.20;;
63807;SDS011;49961;43.970;22.868;2023-04-03T04:13:45;5.53;;;3.20;;
63807;SDS011;49961;43.970;22.868;2023-04-03T04:14:46;5.53;;;3.47;;
63807;SDS011;49961;43.970;22.868;2023-04-03T04:15:46;5.03;;;3.20;;
63807;SDS011;49961;43.970;22.868;2023-04-03T04:16:47;5.70;;;3.70;;
63807;SDS011;49961;43.970;22.868;2023-04-03T04:17:48;6.63;;;3.83;;
63807;SDS011;49961;43.970;22.868;2023-04-03T04:18:48;9.03;;;3.97;;
63807;SDS011;49961;43.970;22.868;2023-04-03T04:19:49;4.57;;;3.73;;
63807;SDS011;49961;43.970;22.868;2023-04-03T04:20:49;6.90;;;3.93;;
63807;SDS011;49961;43.970;22.868;2023-04-03T04:21:50;5.47;;;4.27;;
63807;SDS011;49961;43.970;22.868;2023-04-03T04:22:50;6.27;;;4.00;;
63807;SDS011;49961;43.970;22.868;2023-04-03T04:23:51;4.60;;;3.40;;
63807;SDS011;49961;43.970;22.868;2023-04-03T04:24:51;6.80;;;4.23;;
63807;SDS011;49961;43.970;22.868;2023-04-03T04:25:51;4.77;;;3.93;;
63807;SDS011;49961;43.970;22.868;2023-04-03T04:26:52;6.23;;;4.27;;
63807;SDS011;49961;43.970;22.868;2023-04-03T04:27:52;5.33;;;3.83;;
63807;SDS011;49961;43.970;22.868;2023-04-03T04:28:53;7.50;;;4.53;;
63807;SDS011;49961;43.970;22.868;2023-04-03T04:29:53;11.30;;;4.67;;
63807;SDS011;49961;43.970;22.868;2023-04-03T04:30:54;8.20;;;4.67;;
63807;SDS011;49961;43.970;22.868;2023-04-03T04:31:54;10.30;;;4.30;;
63807;SDS011;49961;43.970;22.868;2023-04-03T04:32:55;6.87;;;4.30;;
63807;SDS011;49961;43.970;22.868;2023-04-03T04:33:55;13.43;;;5.20;;
63807;SDS011;49961;43.970;22.868;2023-04-03T04:34:56;14.93;;;4.60;;
63807;SDS011;49961;43.970;22.868;2023-04-03T04:35:56;12.20;;;4.80;;
63807;SDS011;49961;43.970;22.868;2023-04-03T04:36:57;7.90;;;5.37;;
63807;SDS011;49961;43.970;22.868;2023-04-03T04:37:57;7.07;;;4.50;;
63807;SDS011;49961;43.970;22.868;2023-04-03T04:38:58;8.67;;;4.93;;
63807;SDS011;49961;43.970;22.868;2023-04-03T04:39:58;6.67;;;4.70;;
63807;SDS011;49961;43.970;22.868;2023-04-03T04:40:59;8.70;;;5.47;;
63807;SDS011;49961;43.970;22.868;2023-04-03T04:42:00;6.67;;;4.80;;
63807;SDS011;49961;43.970;22.868;2023-04-03T04:43:00;9.10;;;5.17;;
63807;SDS011;49961;43.970;22.868;2023-04-03T04:44:01;8.90;;;5.60;;
63807;SDS011;49961;43.970;22.868;2023-04-03T04:45:01;8.97;;;5.37;;
63807;SDS011;49961;43.970;22.868;2023-04-03T04:47:11;9.37;;;5.63;;
63807;SDS011;49961;43.970;22.868;2023-04-03T04:48:11;6.10;;;5.27;;
63807;SDS011;49961;43.970;22.868;2023-04-03T04:49:12;7.77;;;6.00;;
63807;SDS011;49961;43.970;22.868;2023-04-03T04:50:12;10.70;;;5.53;;
63807;SDS011;49961;43.970;22.868;2023-04-03T04:51:13;10.00;;;5.50;;
63807;SDS011;49961;43.970;22.868;2023-04-03T04:52:15;10.70;;;5.30;;
63807;SDS011;49961;43.970;22.868;2023-04-03T04:53:15;9.83;;;5.43;;
63807;SDS011;49961;43.970;22.868;2023-04-03T04:54:16;5.70;;;5.07;;
63807;SDS011;49961;43.970;22.868;2023-04-03T04:55:16;9.23;;;4.93;;
63807;SDS011;49961;43.970;22.868;2023-04-03T04:56:16;11.53;;;5.60;;
63807;SDS011;49961;43.970;22.868;2023-04-03T04:57:17;6.63;;;5.23;;
63807;SDS011;49961;43.970;22.868;2023-04-03T04:58:17;7.00;;;4.70;;
63807;SDS011;49961;43.970;22.868;2023-04-03T04:59:18;10.13;;;5.47;;
63807;SDS011;49961;43.970;22.868;2023-04-03T05:00:18;6.87;;;4.97;;
63807;SDS011;49961;43.970;22.868;2023-04-03T05:01:19;7.87;;;5.00;;
63807;SDS011;49961;43.970;22.868;2023-04-03T05:02:20;7.83;;;5.13;;
63807;SDS011;49961;43.970;22.868;2023-04-03T05:03:20;10.20;;;5.33;;
63807;SDS011;49961;43.970;22.868;2023-04-03T05:04:20;8.07;;;6.20;;
63807;SDS011;49961;43.970;22.868;2023-04-03T05:05:21;10.30;;;6.30;;
63807;SDS011;49961;43.970;22.868;2023-04-03T05:07:41;10.20;;;5.60;;
63807;SDS011;49961;43.970;22.868;2023-04-03T05:08:41;10.50;;;5.70;;
63807;SDS011;49961;43.970;22.868;2023-04-03T05:09:42;8.73;;;5.83;;
63807;SDS011;49961;43.970;22.868;2023-04-03T05:10:42;10.43;;;5.63;;
63807;SDS011;49961;43.970;22.868;2023-04-03T05:11:45;8.70;;;6.03;;
63807;SDS011;49961;43.970;22.868;2023-04-03T05:12:46;7.17;;;5.47;;
63807;SDS011;49961;43.970;22.868;2023-04-03T05:13:46;6.07;;;4.80;;
63807;SDS011;49961;43.970;22.868;2023-04-03T05:14:47;7.53;;;5.60;;
63807;SDS011;49961;43.970;22.868;2023-04-03T05:15:47;7.73;;;5.40;;
63807;SDS011;49961;43.970;22.868;2023-04-03T05:16:48;6.20;;;5.50;;
63807;SDS011;49961;43.970;22.868;2023-04-03T05:17:48;7.10;;;4.93;;
63807;SDS011;49961;43.970;22.868;2023-04-03T05:18:49;6.37;;;4.77;;
63807;SDS011;49961;43.970;22.868;2023-04-03T05:19:49;10.37;;;5.10;;
63807;SDS011;49961;43.970;22.868;2023-04-03T05:20:50;6.70;;;4.83;;
63807;SDS011;49961;43.970;22.868;2023-04-03T05:21:50;8.23;;;4.80;;
63807;SDS011;49961;43.970;22.868;2023-04-03T05:22:51;5.83;;;4.33;;
63807;SDS011;49961;43.970;22.868;2023-04-03T05:23:51;5.13;;;4.63;;
63807;SDS011;49961;43.970;22.868;2023-04-03T05:24:52;5.17;;;4.63;;
63807;SDS011;49961;43.970;22.868;2023-04-03T05:25:52;5.90;;;4.50;;
63807;SDS011;49961;43.970;22.868;2023-04-03T05:26:53;7.60;;;5.03;;
63807;SDS011;49961;43.970;22.868;2023-04-03T05:27:54;6.50;;;4.80;;
63807;SDS011;49961;43.970;22.868;2023-04-03T05:28:55;4.83;;;4.37;;
63807;SDS011;49961;43.970;22.868;2023-04-03T05:29:55;7.03;;;5.10;;
63807;SDS011;49961;43.970;22.868;2023-04-03T05:30:56;8.30;;;4.80;;
63807;SDS011;49961;43.970;22.868;2023-04-03T05:31:58;11.70;;;5.63;;
63807;SDS011;49961;43.970;22.868;2023-04-03T05:32:58;5.57;;;4.70;;
63807;SDS011;49961;43.970;22.868;2023-04-03T05:33:59;10.13;;;5.03;;
63807;SDS011;49961;43.970;22.868;2023-04-03T05:35:00;5.60;;;4.67;;
63807;SDS011;49961;43.970;22.868;2023-04-03T05:36:04;5.17;;;4.50;;
63807;SDS011;49961;43.970;22.868;2023-04-03T05:37:05;5.33;;;4.10;;
63807;SDS011;49961;43.970;22.868;2023-04-03T05:38:05;7.17;;;4.73;;
63807;SDS011;49961;43.970;22.868;2023-04-03T05:39:06;8.33;;;4.90;;
63807;SDS011;49961;43.970;22.868;2023-04-03T05:40:06;7.73;;;4.90;;
63807;SDS011;49961;43.970;22.868;2023-04-03T05:41:08;8.07;;;4.50;;
63807;SDS011;49961;43.970;22.868;2023-04-03T05:42:08;7.23;;;4.40;;
63807;SDS011;49961;43.970;22.868;2023-04-03T05:43:09;5.43;;;4.20;;
63807;SDS011;49961;43.970;22.868;2023-04-03T05:44:10;6.97;;;4.00;;
63807;SDS011;49961;43.970;22.868;2023-04-03T05:45:10;12.20;;;6.13;;
63807;SDS011;49961;43.970;22.868;2023-04-03T05:46:11;13.13;;;5.77;;
63807;SDS011;49961;43.970;22.868;2023-04-03T05:47:13;8.60;;;5.43;;
63807;SDS011;49961;43.970;22.868;2023-04-03T05:48:13;17.43;;;11.07;;
63807;SDS011;49961;43.970;22.868;2023-04-03T05:49:14;7.80;;;5.40;;
63807;SDS011;49961;43.970;22.868;2023-04-03T05:50:14;8.27;;;5.50;;
63807;SDS011;49961;43.970;22.868;2023-04-03T05:51:19;5.43;;;4.07;;
63807;SDS011;49961;43.970;22.868;2023-04-03T05:52:25;6.10;;;3.70;;
63807;SDS011;49961;43.970;22.868;2023-04-03T05:53:28;6.00;;;3.90;;
63807;SDS011;49961;43.970;22.868;2023-04-03T05:54:31;4.87;;;3.60;;
63807;SDS011;49961;43.970;22.868;2023-04-03T05:55:31;4.53;;;3.53;;
63807;SDS011;49961;43.970;22.868;2023-04-03T05:56:32;4.63;;;3.73;;
63807;SDS011;49961;43.970;22.868;2023-04-03T05:57:32;5.33;;;3.43;;
63807;SDS011;49961;43.970;22.868;2023-04-03T05:58:33;4.60;;;3.87;;
63807;SDS011;49961;43.970;22.868;2023-04-03T05:59:33;3.77;;;3.10;;
63807;SDS011;49961;43.970;22.868;2023-04-03T06:00:33;7.17;;;4.00;;
63807;SDS011;49961;43.970;22.868;2023-04-03T06:01:34;4.30;;;3.20;;
63807;SDS011;49961;43.970;22.868;2023-04-03T06:02:35;4.03;;;3.40;;
63807;SDS011;49961;43.970;22.868;2023-04-03T06:03:36;4.83;;;3.37;;
63807;SDS011;49961;43.970;22.868;2023-04-03T06:04:36;5.77;;;3.40;;
63807;SDS011;49961;43.970;22.868;2023-04-03T06:05:37;4.90;;;3.40;;
63807;SDS011;49961;43.970;22.868;2023-04-03T06:06:47;4.03;;;3.13;;
63807;SDS011;49961;43.970;22.868;2023-04-03T06:07:52;6.13;;;3.30;;
63807;SDS011;49961;43.970;22.868;2023-04-03T06:08:53;4.80;;;3.10;;
63807;SDS011;49961;43.970;22.868;2023-04-03T06:09:53;4.70;;;3.23;;